sensor_id;sensor_type;location;lat;lon;timestamp;pressure;altitude;pressure_sealevel;temperature;humidity
29909;BME280;36247;51.952;6.146;2023-08-17T00:01:49;101914.72;;;18.32;100.00
29909;BME280;36247;51.952;6.146;2023-08-17T00:04:16;101921.88;;;18.30;100.00
29909;BME280;36247;51.952;6.146;2023-08-17T00:06:42;101923.66;;;18.26;100.00
29909;BME280;36247;51.952;6.146;2023-08-17T00:09:07;101919.19;;;18.27;100.00
29909;BME280;36247;51.952;6.146;2023-08-17T00:11:33;101921.00;;;18.19;100.00
29909;BME280;36247;51.952;6.146;2023-08-17T00:14:00;101916.53;;;18.10;100.00
29909;BME280;36247;51.952;6.146;2023-08-17T00:16:25;101927.25;;;18.18;100.00
29909;BME280;36247;51.952;6.146;2023-08-17T00:18:51;101923.69;;;18.20;100.00
29909;BME280;36247;51.952;6.146;2023-08-17T00:21:17;101929.91;;;18.30;100.00
29909;BME280;36247;51.952;6.146;2023-08-17T00:23:43;101924.56;;;18.22;100.00
29909;BME280;36247;51.952;6.146;2023-08-17T00:26:08;101919.22;;;18.10;100.00
29909;BME280;36247;51.952;6.146;2023-08-17T00:28:34;101914.72;;;18.15;100.00
29909;BME280;36247;51.952;6.146;2023-08-17T00:31:00;101925.44;;;18.17;100.00
29909;BME280;36247;51.952;6.146;2023-08-17T00:33:26;101922.78;;;18.01;100.00
29909;BME280;36247;51.952;6.146;2023-08-17T00:35:51;101922.78;;;17.92;100.00
29909;BME280;36247;51.952;6.146;2023-08-17T00:38:17;101927.22;;;17.90;100.00
29909;BME280;36247;51.952;6.146;2023-08-17T00:40:48;101932.56;;;17.88;100.00
29909;BME280;36247;51.952;6.146;2023-08-17T00:43:16;101931.69;;;17.88;100.00
29909;BME280;36247;51.952;6.146;2023-08-17T00:45:46;101930.78;;;17.81;100.00
29909;BME280;36247;51.952;6.146;2023-08-17T00:48:12;101921.84;;;17.84;100.00
29909;BME280;36247;51.952;6.146;2023-08-17T00:50:40;101929.00;;;17.75;100.00
29909;BME280;36247;51.952;6.146;2023-08-17T00:53:06;101922.75;;;17.84;100.00
29909;BME280;36247;51.952;6.146;2023-08-17T00:55:35;101921.84;;;17.71;100.00
29909;BME280;36247;51.952;6.146;2023-08-17T00:58:01;101933.44;;;17.76;100.00
29909;BME280;36247;51.952;6.146;2023-08-17T01:00:27;101924.50;;;17.84;100.00
29909;BME280;36247;51.952;6.146;2023-08-17T01:02:53;101923.63;;;17.75;100.00
29909;BME280;36247;51.952;6.146;2023-08-17T01:05:19;101920.03;;;17.70;100.00
29909;BME280;36247;51.952;6.146;2023-08-17T01:07:46;101919.16;;;17.67;100.00
29909;BME280;36247;51.952;6.146;2023-08-17T01:10:11;101921.81;;;17.68;100.00
29909;BME280;36247;51.952;6.146;2023-08-17T01:15:39;101922.72;;;17.66;100.00
29909;BME280;36247;51.952;6.146;2023-08-17T01:20:34;101911.09;;;17.65;100.00
29909;BME280;36247;51.952;6.146;2023-08-17T01:23:06;101920.94;;;17.74;100.00
29909;BME280;36247;51.952;6.146;2023-08-17T01:25:36;101923.63;;;17.68;100.00
29909;BME280;36247;51.952;6.146;2023-08-17T01:28:05;101929.88;;;17.67;100.00
29909;BME280;36247;51.952;6.146;2023-08-17T01:30:42;101932.53;;;17.60;100.00
29909;BME280;36247;51.952;6.146;2023-08-17T01:33:20;101932.53;;;17.59;100.00
29909;BME280;36247;51.952;6.146;2023-08-17T01:38:25;101934.34;;;17.75;100.00
29909;BME280;36247;51.952;6.146;2023-08-17T01:40:51;101926.31;;;17.75;100.00
29909;BME280;36247;51.952;6.146;2023-08-17T01:43:19;101941.50;;;17.83;100.00
29909;BME280;36247;51.952;6.146;2023-08-17T01:45:46;101934.34;;;17.72;100.00
29909;BME280;36247;51.952;6.146;2023-08-17T01:48:11;101929.00;;;17.82;100.00
29909;BME280;36247;51.952;6.146;2023-08-17T01:50:37;101927.19;;;17.77;100.00
29909;BME280;36247;51.952;6.146;2023-08-17T01:53:03;101920.03;;;17.62;100.00
29909;BME280;36247;51.952;6.146;2023-08-17T01:55:28;101908.38;;;17.43;100.00
29909;BME280;36247;51.952;6.146;2023-08-17T01:57:55;101911.97;;;17.44;100.00
29909;BME280;36247;51.952;6.146;2023-08-17T02:00:21;101907.47;;;17.32;100.00
29909;BME280;36247;51.952;6.146;2023-08-17T02:02:47;101900.31;;;17.43;100.00
29909;BME280;36247;51.952;6.146;2023-08-17T02:05:12;101892.28;;;17.34;100.00
29909;BME280;36247;51.952;6.146;2023-08-17T02:07:38;101886.88;;;17.17;100.00
29909;BME280;36247;51.952;6.146;2023-08-17T02:10:04;101890.44;;;17.13;100.00
29909;BME280;36247;51.952;6.146;2023-08-17T02:12:31;101877.88;;;17.00;100.00
29909;BME280;36247;51.952;6.146;2023-08-17T02:14:56;101879.69;;;16.99;100.00
29909;BME280;36247;51.952;6.146;2023-08-17T02:17:22;101889.53;;;17.02;100.00
29909;BME280;36247;51.952;6.146;2023-08-17T02:19:48;101877.91;;;17.04;100.00
29909;BME280;36247;51.952;6.146;2023-08-17T02:22:16;101879.66;;;16.93;100.00
29909;BME280;36247;51.952;6.146;2023-08-17T02:24:41;101881.50;;;17.06;100.00
29909;BME280;36247;51.952;6.146;2023-08-17T02:27:09;101887.75;;;17.12;100.00
29909;BME280;36247;51.952;6.146;2023-08-17T02:29:34;101880.56;;;16.98;100.00
29909;BME280;36247;51.952;6.146;2023-08-17T02:32:00;101883.28;;;17.10;100.00
29909;BME280;36247;51.952;6.146;2023-08-17T02:34:26;101885.91;;;16.95;100.00
29909;BME280;36247;51.952;6.146;2023-08-17T02:36:52;101884.09;;;16.91;100.00
29909;BME280;36247;51.952;6.146;2023-08-17T02:39:17;101883.22;;;16.92;100.00
29909;BME280;36247;51.952;6.146;2023-08-17T02:41:43;101888.59;;;17.04;100.00
29909;BME280;36247;51.952;6.146;2023-08-17T02:44:10;101875.19;;;16.97;100.00
29909;BME280;36247;51.952;6.146;2023-08-17T02:46:36;101873.34;;;16.85;100.00
29909;BME280;36247;51.952;6.146;2023-08-17T02:49:03;101873.28;;;16.71;100.00
29909;BME280;36247;51.952;6.146;2023-08-17T02:51:28;101867.97;;;16.79;100.00
29909;BME280;36247;51.952;6.146;2023-08-17T02:53:54;101874.13;;;16.62;100.00
29909;BME280;36247;51.952;6.146;2023-08-17T02:56:19;101878.69;;;16.85;100.00
29909;BME280;36247;51.952;6.146;2023-08-17T02:58:47;101868.94;;;16.91;100.00
29909;BME280;36247;51.952;6.146;2023-08-17T03:01:12;101875.13;;;16.86;100.00
29909;BME280;36247;51.952;6.146;2023-08-17T03:03:38;101861.75;;;16.86;100.00
29909;BME280;36247;51.952;6.146;2023-08-17T03:06:05;101868.03;;;16.88;100.00
29909;BME280;36247;51.952;6.146;2023-08-17T03:08:31;101860.78;;;16.71;100.00
29909;BME280;36247;51.952;6.146;2023-08-17T03:10:57;101870.63;;;16.77;100.00
29909;BME280;36247;51.952;6.146;2023-08-17T03:13:22;101868.84;;;16.76;100.00
29909;BME280;36247;51.952;6.146;2023-08-17T03:15:48;101874.22;;;16.82;100.00
29909;BME280;36247;51.952;6.146;2023-08-17T03:18:16;101863.47;;;16.76;100.00
29909;BME280;36247;51.952;6.146;2023-08-17T03:20:45;101864.41;;;16.81;100.00
29909;BME280;36247;51.952;6.146;2023-08-17T03:23:11;101864.31;;;16.64;100.00
29909;BME280;36247;51.952;6.146;2023-08-17T03:25:37;101860.81;;;16.78;100.00
29909;BME280;36247;51.952;6.146;2023-08-17T03:28:03;101857.28;;;16.86;100.00
29909;BME280;36247;51.952;6.146;2023-08-17T03:30:34;101862.56;;;16.65;100.00
29909;BME280;36247;51.952;6.146;2023-08-17T03:33:00;101866.91;;;16.50;100.00
29909;BME280;36247;51.952;6.146;2023-08-17T03:35:26;101866.94;;;16.55;100.00
29909;BME280;36247;51.952;6.146;2023-08-17T03:37:51;101862.53;;;16.60;100.00
29909;BME280;36247;51.952;6.146;2023-08-17T03:40:17;101857.13;;;16.52;100.00
29909;BME280;36247;51.952;6.146;2023-08-17T03:42:42;101857.16;;;16.57;100.00
29909;BME280;36247;51.952;6.146;2023-08-17T03:45:09;101858.00;;;16.48;100.00
29909;BME280;36247;51.952;6.146;2023-08-17T03:47:34;101853.56;;;16.53;100.00
29909;BME280;36247;51.952;6.146;2023-08-17T03:50:00;101859.84;;;16.57;100.00
29909;BME280;36247;51.952;6.146;2023-08-17T03:52:25;101849.09;;;16.51;100.00
29909;BME280;36247;51.952;6.146;2023-08-17T03:54:51;101850.88;;;16.53;100.00
29909;BME280;36247;51.952;6.146;2023-08-17T03:57:16;101849.97;;;16.47;100.00
29909;BME280;36247;51.952;6.146;2023-08-17T03:59:42;101854.41;;;16.48;100.00
29909;BME280;36247;51.952;6.146;2023-08-17T04:02:07;101846.34;;;16.38;100.00
29909;BME280;36247;51.952;6.146;2023-08-17T04:04:33;101846.34;;;16.37;100.00
29909;BME280;36247;51.952;6.146;2023-08-17T04:07:01;101849.91;;;16.40;100.00
29909;BME280;36247;51.952;6.146;2023-08-17T04:09:28;101854.34;;;16.35;100.00
29909;BME280;36247;51.952;6.146;2023-08-17T04:11:53;101857.94;;;16.39;100.00
29909;BME280;36247;51.952;6.146;2023-08-17T04:14:20;101851.69;;;16.37;100.00
29909;BME280;36247;51.952;6.146;2023-08-17T04:16:46;101865.09;;;16.43;100.00
29909;BME280;36247;51.952;6.146;2023-08-17T04:19:12;101862.41;;;16.42;100.00
29909;BME280;36247;51.952;6.146;2023-08-17T04:21:38;101866.84;;;16.36;100.00
29909;BME280;36247;51.952;6.146;2023-08-17T04:24:03;101861.47;;;16.32;100.00
29909;BME280;36247;51.952;6.146;2023-08-17T04:26:30;101866.00;;;16.42;100.00
29909;BME280;36247;51.952;6.146;2023-08-17T04:28:56;101873.09;;;16.38;100.00
29909;BME280;36247;51.952;6.146;2023-08-17T04:31:21;101882.00;;;16.37;100.00
29909;BME280;36247;51.952;6.146;2023-08-17T04:33:55;101887.41;;;16.44;100.00
29909;BME280;36247;51.952;6.146;2023-08-17T04:36:21;101894.47;;;16.35;100.00
29909;BME280;36247;51.952;6.146;2023-08-17T04:38:46;101890.94;;;16.41;100.00
29909;BME280;36247;51.952;6.146;2023-08-17T04:41:12;101881.13;;;16.43;100.00
29909;BME280;36247;51.952;6.146;2023-08-17T04:43:37;101883.75;;;16.32;100.00
29909;BME280;36247;51.952;6.146;2023-08-17T04:46:03;101883.88;;;16.54;100.00
29909;BME280;36247;51.952;6.146;2023-08-17T04:48:30;101890.09;;;16.47;100.00
29909;BME280;36247;51.952;6.146;2023-08-17T04:50:55;101881.13;;;16.40;100.00
29909;BME280;36247;51.952;6.146;2023-08-17T04:53:21;101885.59;;;16.39;100.00
29909;BME280;36247;51.952;6.146;2023-08-17T04:55:48;101878.38;;;16.29;100.00
29909;BME280;36247;51.952;6.146;2023-08-17T04:58:17;101881.13;;;16.42;100.00
29909;BME280;36247;51.952;6.146;2023-08-17T05:00:43;101881.13;;;16.40;100.00
29909;BME280;36247;51.952;6.146;2023-08-17T05:03:11;101871.34;;;16.44;100.00
29909;BME280;36247;51.952;6.146;2023-08-17T05:05:42;101874.84;;;16.33;100.00
29909;BME280;36247;51.952;6.146;2023-08-17T05:08:11;101874.94;;;16.50;100.00
29909;BME280;36247;51.952;6.146;2023-08-17T05:10:37;101873.09;;;16.40;100.00
29909;BME280;36247;51.952;6.146;2023-08-17T05:13:03;101868.63;;;16.39;100.00
29909;BME280;36247;51.952;6.146;2023-08-17T05:15:28;101872.19;;;16.36;100.00
29909;BME280;36247;51.952;6.146;2023-08-17T05:17:56;101876.59;;;16.30;100.00
29909;BME280;36247;51.952;6.146;2023-08-17T05:20:22;101878.41;;;16.34;100.00
29909;BME280;36247;51.952;6.146;2023-08-17T05:22:48;101879.47;;;16.61;100.00
29909;BME280;36247;51.952;6.146;2023-08-17T05:25:15;101885.63;;;16.46;100.00
29909;BME280;36247;51.952;6.146;2023-08-17T05:27:46;101881.13;;;16.43;100.00
29909;BME280;36247;51.952;6.146;2023-08-17T05:30:12;101877.63;;;16.49;100.00
29909;BME280;36247;51.952;6.146;2023-08-17T05:32:40;101880.34;;;16.63;100.00
29909;BME280;36247;51.952;6.146;2023-08-17T05:35:06;101876.88;;;16.78;100.00
29909;BME280;36247;51.952;6.146;2023-08-17T05:37:31;101874.19;;;16.76;100.00
29909;BME280;36247;51.952;6.146;2023-08-17T05:39:58;101886.59;;;16.57;100.00
29909;BME280;36247;51.952;6.146;2023-08-17T05:42:25;101878.66;;;16.77;100.00
29909;BME280;36247;51.952;6.146;2023-08-17T05:44:50;101881.31;;;16.71;100.00
29909;BME280;36247;51.952;6.146;2023-08-17T05:47:17;101884.03;;;16.82;100.00
29909;BME280;36247;51.952;6.146;2023-08-17T05:49:46;101888.38;;;16.61;100.00
29909;BME280;36247;51.952;6.146;2023-08-17T05:52:11;101896.44;;;16.69;100.00
29909;BME280;36247;51.952;6.146;2023-08-17T05:54:37;101896.44;;;16.70;100.00
29909;BME280;36247;51.952;6.146;2023-08-17T05:57:03;101890.22;;;16.73;100.00
29909;BME280;36247;51.952;6.146;2023-08-17T05:59:30;101887.69;;;16.88;100.00
29909;BME280;36247;51.952;6.146;2023-08-17T06:01:55;101886.72;;;16.83;100.00
29909;BME280;36247;51.952;6.146;2023-08-17T06:04:21;101887.69;;;16.93;100.00
29909;BME280;36247;51.952;6.146;2023-08-17T06:06:47;101889.47;;;16.97;100.00
29909;BME280;36247;51.952;6.146;2023-08-17T06:09:12;101889.59;;;17.28;100.00
29909;BME280;36247;51.952;6.146;2023-08-17T06:11:42;101884.22;;;17.22;100.00
29909;BME280;36247;51.952;6.146;2023-08-17T06:14:08;101889.56;;;17.22;100.00
29909;BME280;36247;51.952;6.146;2023-08-17T06:16:33;101896.75;;;17.34;100.00
29909;BME280;36247;51.952;6.146;2023-08-17T06:19:00;101886.03;;;17.32;100.00
29909;BME280;36247;51.952;6.146;2023-08-17T06:21:25;101890.56;;;17.72;100.00
29909;BME280;36247;51.952;6.146;2023-08-17T06:23:51;101891.41;;;17.54;100.00
29909;BME280;36247;51.952;6.146;2023-08-17T06:26:21;101890.56;;;17.73;100.00
29909;BME280;36247;51.952;6.146;2023-08-17T06:28:47;101890.53;;;17.58;100.00
29909;BME280;36247;51.952;6.146;2023-08-17T06:31:17;101888.78;;;17.75;100.00
29909;BME280;36247;51.952;6.146;2023-08-17T06:33:42;101889.66;;;17.88;100.00
29909;BME280;36247;51.952;6.146;2023-08-17T06:36:08;101891.47;;;17.75;100.00
29909;BME280;36247;51.952;6.146;2023-08-17T06:38:33;101893.25;;;17.87;100.00
29909;BME280;36247;51.952;6.146;2023-08-17T06:41:00;101895.09;;;17.96;100.00
29909;BME280;36247;51.952;6.146;2023-08-17T06:43:25;101888.81;;;17.92;100.00
29909;BME280;36247;51.952;6.146;2023-08-17T06:45:51;101894.16;;;17.88;100.00
29909;BME280;36247;51.952;6.146;2023-08-17T06:48:17;101899.53;;;18.19;100.00
29909;BME280;36247;51.952;6.146;2023-08-17T06:50:43;101891.50;;;18.19;100.00
29909;BME280;36247;51.952;6.146;2023-08-17T06:53:08;101897.75;;;18.14;100.00
29909;BME280;36247;51.952;6.146;2023-08-17T06:55:34;101896.84;;;18.34;100.00
29909;BME280;36247;51.952;6.146;2023-08-17T06:58:00;101887.91;;;18.29;100.00
29909;BME280;36247;51.952;6.146;2023-08-17T07:00:25;101899.53;;;18.29;100.00
29909;BME280;36247;51.952;6.146;2023-08-17T07:02:51;101901.31;;;18.20;100.00
29909;BME280;36247;51.952;6.146;2023-08-17T07:05:17;101896.84;;;18.25;100.00
29909;BME280;36247;51.952;6.146;2023-08-17T07:07:47;101904.00;;;18.10;100.00
29909;BME280;36247;51.952;6.146;2023-08-17T07:10:12;101904.00;;;18.27;100.00
29909;BME280;36247;51.952;6.146;2023-08-17T07:12:38;101900.44;;;18.21;100.00
29909;BME280;36247;51.952;6.146;2023-08-17T07:15:04;101905.78;;;18.16;100.00
29909;BME280;36247;51.952;6.146;2023-08-17T07:17:30;101900.41;;;18.28;100.00
29909;BME280;36247;51.952;6.146;2023-08-17T07:19:56;101904.00;;;18.17;100.00
29909;BME280;36247;51.952;6.146;2023-08-17T07:22:21;101905.78;;;18.19;100.00
29909;BME280;36247;51.952;6.146;2023-08-17T07:24:47;101904.00;;;18.32;100.00
29909;BME280;36247;51.952;6.146;2023-08-17T07:27:12;101905.78;;;18.33;100.00
29909;BME280;36247;51.952;6.146;2023-08-17T07:29:38;101914.72;;;18.13;100.00
29909;BME280;36247;51.952;6.146;2023-08-17T07:32:04;101912.97;;;18.17;100.00
29909;BME280;36247;51.952;6.146;2023-08-17T07:34:33;101922.78;;;18.06;100.00
29909;BME280;36247;51.952;6.146;2023-08-17T07:37:00;101919.22;;;18.13;100.00
29909;BME280;36247;51.952;6.146;2023-08-17T07:39:26;101922.78;;;18.00;100.00
29909;BME280;36247;51.952;6.146;2023-08-17T07:41:51;101922.78;;;18.10;100.00
29909;BME280;36247;51.952;6.146;2023-08-17T07:44:17;101912.06;;;17.98;100.00
29909;BME280;36247;51.952;6.146;2023-08-17T07:46:42;101914.75;;;17.95;100.00
29909;BME280;36247;51.952;6.146;2023-08-17T07:49:08;101922.78;;;17.92;100.00
29909;BME280;36247;51.952;6.146;2023-08-17T07:51:33;101924.59;;;18.01;100.00
29909;BME280;36247;51.952;6.146;2023-08-17T07:54:00;101924.50;;;17.84;100.00
29909;BME280;36247;51.952;6.146;2023-08-17T07:56:26;101922.75;;;17.81;100.00
29909;BME280;36247;51.952;6.146;2023-08-17T07:58:53;101919.22;;;18.04;100.00
29909;BME280;36247;51.952;6.146;2023-08-17T08:01:19;101925.47;;;18.03;100.00
29909;BME280;36247;51.952;6.146;2023-08-17T08:03:46;101918.31;;;18.19;100.00
29909;BME280;36247;51.952;6.146;2023-08-17T08:06:12;101918.31;;;18.22;100.00
29909;BME280;36247;51.952;6.146;2023-08-17T08:08:39;101925.47;;;18.35;100.00
29909;BME280;36247;51.952;6.146;2023-08-17T08:11:05;101929.91;;;18.33;100.00
29909;BME280;36247;51.952;6.146;2023-08-17T08:13:31;101926.34;;;18.29;100.00
29909;BME280;36247;51.952;6.146;2023-08-17T08:15:58;101929.00;;;18.49;100.00
29909;BME280;36247;51.952;6.146;2023-08-17T08:18:25;101933.50;;;18.29;100.00
29909;BME280;36247;51.952;6.146;2023-08-17T08:20:51;101930.81;;;18.38;100.00
29909;BME280;36247;51.952;6.146;2023-08-17T08:23:18;101928.16;;;18.29;100.00
29909;BME280;36247;51.952;6.146;2023-08-17T08:25:43;101927.22;;;18.31;100.00
29909;BME280;36247;51.952;6.146;2023-08-17T08:28:12;101929.03;;;18.26;100.00
29909;BME280;36247;51.952;6.146;2023-08-17T08:30:37;101930.84;;;18.26;100.00
29909;BME280;36247;51.952;6.146;2023-08-17T08:33:03;101937.06;;;18.34;100.00
29909;BME280;36247;51.952;6.146;2023-08-17T08:35:30;101929.03;;;18.31;100.00
29909;BME280;36247;51.952;6.146;2023-08-17T08:37:55;101929.03;;;18.36;100.00
29909;BME280;36247;51.952;6.146;2023-08-17T08:40:28;101937.09;;;18.29;100.00
29909;BME280;36247;51.952;6.146;2023-08-17T08:42:56;101923.66;;;18.26;100.00
29909;BME280;36247;51.952;6.146;2023-08-17T08:45:22;101924.53;;;18.36;100.00
29909;BME280;36247;51.952;6.146;2023-08-17T08:47:49;101914.72;;;18.44;100.00
29909;BME280;36247;51.952;6.146;2023-08-17T08:50:19;101920.09;;;18.35;100.00
29909;BME280;36247;51.952;6.146;2023-08-17T08:52:58;101920.94;;;18.48;100.00
29909;BME280;36247;51.952;6.146;2023-08-17T08:55:30;101921.88;;;18.42;100.00
29909;BME280;36247;51.952;6.146;2023-08-17T08:57:58;101925.44;;;18.38;100.00
29909;BME280;36247;51.952;6.146;2023-08-17T09:00:24;101917.38;;;18.44;100.00
29909;BME280;36247;51.952;6.146;2023-08-17T09:02:51;101924.50;;;18.65;100.00
29909;BME280;36247;51.952;6.146;2023-08-17T09:05:17;101922.72;;;18.69;100.00
29909;BME280;36247;51.952;6.146;2023-08-17T09:07:43;101920.03;;;18.71;100.00
29909;BME280;36247;51.952;6.146;2023-08-17T09:10:09;101922.72;;;18.61;100.00
29909;BME280;36247;51.952;6.146;2023-08-17T09:12:35;101928.06;;;18.72;100.00
29909;BME280;36247;51.952;6.146;2023-08-17T09:15:01;101919.09;;;18.93;100.00
29909;BME280;36247;51.952;6.146;2023-08-17T09:17:27;101911.03;;;18.92;100.00
29909;BME280;36247;51.952;6.146;2023-08-17T09:19:53;101911.03;;;18.92;100.00
29909;BME280;36247;51.952;6.146;2023-08-17T09:22:24;101905.69;;;18.90;100.00
29909;BME280;36247;51.952;6.146;2023-08-17T09:24:50;101908.31;;;18.99;100.00
29909;BME280;36247;51.952;6.146;2023-08-17T09:27:17;101902.97;;;18.93;100.00
29909;BME280;36247;51.952;6.146;2023-08-17T09:29:43;101911.84;;;19.08;100.00
29909;BME280;36247;51.952;6.146;2023-08-17T09:32:17;101909.19;;;19.12;100.00
29909;BME280;36247;51.952;6.146;2023-08-17T09:34:46;101906.41;;;19.26;100.00
29909;BME280;36247;51.952;6.146;2023-08-17T09:37:12;101905.50;;;19.26;100.00
29909;BME280;36247;51.952;6.146;2023-08-17T09:39:38;101901.88;;;19.34;100.00
29909;BME280;36247;51.952;6.146;2023-08-17T09:42:05;101903.63;;;19.43;100.00
29909;BME280;36247;51.952;6.146;2023-08-17T09:44:33;101882.97;;;19.53;100.00
29909;BME280;36247;51.952;6.146;2023-08-17T09:47:00;101891.72;;;19.84;100.00
29909;BME280;36247;51.952;6.146;2023-08-17T09:49:25;101889.09;;;19.78;100.00
29909;BME280;36247;51.952;6.146;2023-08-17T09:51:51;101893.66;;;19.61;100.00
29909;BME280;36247;51.952;6.146;2023-08-17T09:54:23;101894.75;;;19.29;100.00
29909;BME280;36247;51.952;6.146;2023-08-17T09:56:50;101902.81;;;19.30;100.00
29909;BME280;36247;51.952;6.146;2023-08-17T09:59:17;101899.13;;;19.41;100.00
29909;BME280;36247;51.952;6.146;2023-08-17T10:01:43;101892.00;;;19.40;100.00
29909;BME280;36247;51.952;6.146;2023-08-17T10:04:12;101890.28;;;19.26;100.00
29909;BME280;36247;51.952;6.146;2023-08-17T10:06:42;101893.88;;;19.22;100.00
29909;BME280;36247;51.952;6.146;2023-08-17T10:09:09;101897.50;;;19.12;100.00
29909;BME280;36247;51.952;6.146;2023-08-17T10:11:38;101897.50;;;19.13;100.00
29909;BME280;36247;51.952;6.146;2023-08-17T10:14:26;101894.81;;;19.13;100.00
29909;BME280;36247;51.952;6.146;2023-08-17T10:17:01;101883.97;;;19.35;100.00
29909;BME280;36247;51.952;6.146;2023-08-17T10:19:58;101892.94;;;19.31;100.00
29909;BME280;36247;51.952;6.146;2023-08-17T10:22:51;101885.72;;;19.39;100.00
29909;BME280;36247;51.952;6.146;2023-08-17T10:25:18;101888.44;;;19.34;100.00
29909;BME280;36247;51.952;6.146;2023-08-17T10:27:48;101891.13;;;19.34;100.00
29909;BME280;36247;51.952;6.146;2023-08-17T10:30:17;101885.78;;;19.31;100.00
29909;BME280;36247;51.952;6.146;2023-08-17T10:32:42;101883.03;;;19.41;100.00
29909;BME280;36247;51.952;6.146;2023-08-17T10:35:13;101884.00;;;19.32;100.00
29909;BME280;36247;51.952;6.146;2023-08-17T10:37:40;101875.84;;;19.46;100.00
29909;BME280;36247;51.952;6.146;2023-08-17T10:40:06;101876.66;;;19.54;100.00
29909;BME280;36247;51.952;6.146;2023-08-17T10:42:35;101883.84;;;19.53;100.00
29909;BME280;36247;51.952;6.146;2023-08-17T10:47:47;101863.22;;;19.60;100.00
29909;BME280;36247;51.952;6.146;2023-08-17T10:50:24;101865.91;;;19.54;100.00
29909;BME280;36247;51.952;6.146;2023-08-17T10:52:50;101863.16;;;19.68;100.00
29909;BME280;36247;51.952;6.146;2023-08-17T10:55:37;101862.28;;;19.63;100.00
29909;BME280;36247;51.952;6.146;2023-08-17T10:58:05;101855.84;;;19.85;100.00
29909;BME280;36247;51.952;6.146;2023-08-17T11:00:35;101856.78;;;19.84;100.00
29909;BME280;36247;51.952;6.146;2023-08-17T11:03:08;101852.28;;;19.83;100.00
29909;BME280;36247;51.952;6.146;2023-08-17T11:11:09;101850.19;;;20.18;100.00
29909;BME280;36247;51.952;6.146;2023-08-17T11:13:36;101841.00;;;20.37;100.00
29909;BME280;36247;51.952;6.146;2023-08-17T11:16:04;101852.03;;;20.13;100.00
29909;BME280;36247;51.952;6.146;2023-08-17T11:18:32;101852.88;;;20.16;100.00
29909;BME280;36247;51.952;6.146;2023-08-17T11:21:03;101859.13;;;20.17;100.00
29909;BME280;36247;51.952;6.146;2023-08-17T11:23:30;101856.41;;;20.23;100.00
29909;BME280;36247;51.952;6.146;2023-08-17T11:25:56;101854.72;;;20.14;100.00
29909;BME280;36247;51.952;6.146;2023-08-17T11:28:23;101871.00;;;19.94;100.00
29909;BME280;36247;51.952;6.146;2023-08-17T11:30:58;101866.53;;;19.98;100.00
29909;BME280;36247;51.952;6.146;2023-08-17T11:33:26;101867.56;;;19.81;100.00
29909;BME280;36247;51.952;6.146;2023-08-17T11:35:54;101876.50;;;19.77;100.00
29909;BME280;36247;51.952;6.146;2023-08-17T11:38:20;101870.34;;;19.60;100.00
29909;BME280;36247;51.952;6.146;2023-08-17T11:40:46;101881.91;;;19.76;100.00
29909;BME280;36247;51.952;6.146;2023-08-17T11:43:13;101882.00;;;19.65;100.00
29909;BME280;36247;51.952;6.146;2023-08-17T11:45:40;101877.44;;;19.73;100.00
29909;BME280;36247;51.952;6.146;2023-08-17T11:48:06;101882.03;;;19.59;100.00
29909;BME280;36247;51.952;6.146;2023-08-17T11:50:33;101880.97;;;19.86;100.00
29909;BME280;36247;51.952;6.146;2023-08-17T11:53:00;101879.00;;;20.06;100.00
29909;BME280;36247;51.952;6.146;2023-08-17T11:55:26;101880.78;;;20.06;100.00
29909;BME280;36247;51.952;6.146;2023-08-17T11:57:52;101892.72;;;19.68;100.00
29909;BME280;36247;51.952;6.146;2023-08-17T12:00:20;101883.78;;;19.61;100.00
29909;BME280;36247;51.952;6.146;2023-08-17T12:02:49;101873.88;;;19.71;100.00
29909;BME280;36247;51.952;6.146;2023-08-17T12:05:22;101868.38;;;19.88;100.00
29909;BME280;36247;51.952;6.146;2023-08-17T12:07:54;101867.47;;;19.90;100.00
29909;BME280;36247;51.952;6.146;2023-08-17T12:10:20;101870.22;;;19.83;100.00
29909;BME280;36247;51.952;6.146;2023-08-17T12:12:48;101872.69;;;20.06;100.00
29909;BME280;36247;51.952;6.146;2023-08-17T12:15:17;101867.38;;;20.00;100.00
29909;BME280;36247;51.952;6.146;2023-08-17T12:17:47;101856.63;;;20.00;100.00
29909;BME280;36247;51.952;6.146;2023-08-17T12:20:18;101864.69;;;20.01;100.00
29909;BME280;36247;51.952;6.146;2023-08-17T12:22:46;101860.16;;;20.06;100.00
29909;BME280;36247;51.952;6.146;2023-08-17T12:25:13;101860.09;;;20.13;100.00
29909;BME280;36247;51.952;6.146;2023-08-17T12:28:06;101859.19;;;20.12;100.00
29909;BME280;36247;51.952;6.146;2023-08-17T12:30:35;101859.25;;;20.07;100.00
29909;BME280;36247;51.952;6.146;2023-08-17T12:33:03;101854.63;;;20.20;100.00
29909;BME280;36247;51.952;6.146;2023-08-17T12:35:32;101848.97;;;20.45;100.00
29909;BME280;36247;51.952;6.146;2023-08-17T12:37:58;101853.88;;;20.06;100.00
29909;BME280;36247;51.952;6.146;2023-08-17T12:40:24;101852.78;;;20.24;100.00
29909;BME280;36247;51.952;6.146;2023-08-17T12:42:49;101859.19;;;20.11;100.00
29909;BME280;36247;51.952;6.146;2023-08-17T12:45:16;101849.13;;;20.33;100.00
29909;BME280;36247;51.952;6.146;2023-08-17T12:47:42;101860.72;;;20.39;100.00
29909;BME280;36247;51.952;6.146;2023-08-17T12:50:09;101861.66;;;20.35;100.00
29909;BME280;36247;51.952;6.146;2023-08-17T12:52:34;101867.03;;;20.37;100.00
29909;BME280;36247;51.952;6.146;2023-08-17T12:55:00;101874.22;;;20.36;100.00
29909;BME280;36247;51.952;6.146;2023-08-17T12:57:26;101877.03;;;20.21;100.00